Saturday, January 20, 2018, 8:22 AM EST
Back to Local

KSNC, Chester, Chester Airport

Location: Chester, CT, United States Lat: 41.384
Local Time: 8:22 AM EST (13:22 GMT) Lon: -72.506
Time Zone: US/Eastern Elev: 416 ft

Show me the last for .
Show Coded

Time T Td Feel RH Dir Speed Gust Alt SLP Vis Weather Sky Remarks
2018-01-20 08:15 37 23 26 55 250° 14 23 29.79 - 10 CLR None
2018-01-20 07:55 37 23 27 55 240° 14 22 29.78 - 9 CLR None
2018-01-20 07:35 36 23 23 59 240° 15 25 29.78 - 10 CLR None
2018-01-20 07:15 36 23 25 59 240° 12 21 29.79 - 10 CLR None
2018-01-20 06:55 36 23 24 59 240° 12 23 29.79 - 10 CLR None
2018-01-20 06:35 36 23 25 59 240° 13 20 29.79 - 10 CLR None
2018-01-20 06:15 34 23 23 64 230° 13 18 29.78 - 10 None
2018-01-20 05:55 34 23 22 64 230° 12 20 29.79 - 10 CLR None
2018-01-20 05:35 34 23 26 64 230° 10 - 29.80 - 10 CLR None
2018-01-20 05:15 34 23 24 64 240° 8 15 29.82 - 10 CLR None
2018-01-20 04:55 34 23 26 64 230° 10 - 29.82 - 10 CLR None
2018-01-20 04:35 34 23 27 64 210° 8 - 29.82 - 10 CLR None
2018-01-20 04:15 34 23 30 64 230° 5 - 29.84 - 10 CLR None
2018-01-20 03:55 34 25 25 69 Variable 5 13 29.85 - 10 CLR None
2018-01-20 03:35 34 25 26 69 230° 10 - 29.85 - 10 CLR None
2018-01-20 03:15 34 25 23 69 230° 9 18 29.84 - 10 CLR None
2018-01-20 02:35 32 23 24 68 230° 10 - 29.85 - 10 CLR None
2018-01-20 02:15 32 23 25 68 230° 8 - 29.86 - 10 CLR None
2018-01-20 01:55 32 23 23 68 230° 5 12 29.86 - 10 CLR None
2018-01-20 01:35 30 23 25 74 210° 5 - 29.87 - 10 CLR None
2018-01-20 01:15 30 23 27 74 Variable 3 - 29.88 - 10 CLR None
2018-01-20 00:55 30 23 - 74 - Calm - 29.88 - 10 CLR None
2018-01-20 00:15 30 23 25 74 220° 5 - 29.90 - 10 CLR None
2018-01-19 23:55 30 23 27 74 220° 3 - 29.91 - 10 CLR None
2018-01-19 23:35 30 21 27 68 190° 3 - 29.91 - 10 CLR None
2018-01-19 23:15 32 21 29 63 200° 3 - 29.92 - 10 CLR None
2018-01-19 22:55 32 19 26 59 220° 6 - 29.93 - 10 CLR None
2018-01-19 22:35 32 19 26 59 200° 7 - 29.93 - 10 CLR None
2018-01-19 22:15 32 19 26 59 210° 7 - 29.94 - 10 CLR None
2018-01-19 21:55 30 19 24 63 220° 6 - 29.95 - 10 CLR None
2018-01-19 21:35 30 19 27 63 210° 3 - 29.95 - 10 CLR None
2018-01-19 21:15 30 21 - 68 - Calm - 29.96 - 10 CLR None
2018-01-19 20:55 30 21 25 68 230° 5 - 29.96 - 10 CLR None
2018-01-19 20:35 28 19 22 68 220° 6 - 29.97 - 10 CLR None
2018-01-19 20:15 28 19 - 68 - Calm - 29.97 - 10 CLR None
2018-01-19 19:55 28 19 22 68 240° 6 - 29.97 - 10 CLR None
2018-01-19 19:35 28 19 23 68 250° 5 - 29.97 - 10 CLR None
2018-01-19 19:15 28 19 23 68 240° 5 - 29.96 - 10 CLR None
2018-01-19 18:55 28 19 22 68 230° 6 - 29.96 - 10 CLR None
2018-01-19 18:35 30 19 25 63 240° 5 - 29.96 - 10 CLR None
2018-01-19 18:15 30 19 24 63 240° 6 - 29.95 - 10 CLR None
2018-01-19 17:55 30 19 25 63 230° 5 - 29.95 - 10 CLR None
2018-01-19 17:35 30 19 25 63 220° 5 - 29.96 - 10 CLR None
2018-01-19 17:15 30 18 - 58 - Calm - 29.96 - 10 CLR None
2018-01-19 16:55 32 18 27 54 230° 5 - 29.96 - 10 CLR None
2018-01-19 16:35 32 16 29 50 250° 3 - 29.96 - 10 CLR None
2018-01-19 16:15 34 16 31 47 Variable 3 - 29.95 - 10 CLR None
2018-01-19 15:55 34 16 29 47 Variable 6 - 29.94 - 10 CLR None
2018-01-19 15:35 36 16 31 43 250° 6 - 29.94 - 10 CLR None
2018-01-19 15:15 36 16 31 43 290° 6 - 29.94 - 10 CLR None
2018-01-19 14:55 36 16 - 43 - Calm - 29.94 - 10 CLR None
2018-01-19 14:35 36 14 27 40 280° 5 13 29.93 - 10 CLR None
2018-01-19 14:15 36 14 32 40 Variable 5 - 29.93 - 10 CLR None
2018-01-19 13:55 36 14 33 40 Variable 3 - 29.93 - 10 CLR None
2018-01-19 13:35 34 14 28 43 Variable 7 - 29.94 - 10 CLR None
2018-01-19 13:15 34 14 28 43 220° 7 - 29.94 - 10 CLR None
2018-01-19 12:55 34 14 28 43 270° 7 - 29.95 - 10 CLR None
2018-01-19 12:35 34 14 28 43 260° 7 - 29.95 - 10 CLR None
2018-01-19 12:15 32 14 27 46 Variable 5 - 29.96 - 10 CLR None
2018-01-19 11:55 34 14 - 43 - Calm - 29.97 - 10 CLR None
2018-01-19 11:35 34 14 29 43 Variable 6 - 29.98 - 10 CLR None
2018-01-19 11:15 34 14 30 43 Variable 5 - 30.00 - 10 CLR None
2018-01-19 10:55 32 14 26 46 260° 7 - 30.01 - 10 CLR None
2018-01-19 10:35 30 14 25 50 Variable 5 - 30.01 - 10 CLR None
2018-01-19 10:15 30 14 23 50 260° 7 - 30.02 - 10 CLR None
2018-01-19 09:55 28 14 18 54 Variable 5 12 30.02 - 10 CLR None
2018-01-19 09:35 27 14 21 58 Variable 5 - 30.02 - 10 CLR None
2018-01-19 09:15 27 14 21 58 250° 5 - 30.02 - 10 CLR None
2018-01-19 08:55 25 14 18 62 290° 6 - 30.02 - 10 CLR None
2018-01-19 08:35 23 14 17 67 Variable 5 - 30.02 - 10 CLR None

Support USWX by starting your Amazon purchase here.